Coco Solo Sailor — FAC4842 — position and weather

sailwx.info

Track history (hours):
 
Tides and Currents Weather Stations Pressure Air Temp Water Temp Dewpoint Dewpoint Depression Visibility Wind Speed Wind Dir Waves Ship Positions

Coco Solo Sailor

Last reported at 2018-Apr-23 22:29 UTC. Time now 2018-Apr-24 18:33 UTC.
Position N 47°24' W 003°06'.

Length 6 m.

Type: Sailing vessel. MMSI: 227291190.

Date/timePositionNaut miles runAvg speedWind from/ knotsBaromVisibWave heightAir tempDewpointWater temp
2018-Apr-23 22:29N 47°24' W 003°06'4 8.3
2018-Apr-23 21:59N 47°24' W 003°12'3 6.9
2018-Apr-23 21:30N 47°27' W 003°16'4 9.0
2018-Apr-23 21:00N 47°31' W 003°18'6 1.8
2018-Apr-23 17:39N 47°33' W 003°26'1 5.5
2018-Apr-23 17:30N 47°32' W 003°26'2 3.1
2018-Apr-23 17:00N 47°32' W 003°24'84 3.5
2018-Apr-22 17:01N 46°33' W 001°57'0 5.1
2018-Apr-22 16:59N 46°33' W 001°57'2 4.0
2018-Apr-22 16:30N 46°31' W 001°55'2 3.8
2018-Apr-22 16:00N 46°30' W 001°53'2 4.0
2018-Apr-22 15:30N 46°29' W 001°51'2 4.5
2018-Apr-22 15:00N 46°27' W 001°48'2 4.0
2018-Apr-22 14:29N 46°29' W 001°50'4 7.2
2018-Apr-22 13:59N 46°30' W 001°55'74 5.6
2018-Apr-22 00:46N 47°17' W 003°19'1 2.4
2018-Apr-22 00:30N 47°17' W 003°20'1 1.9
2018-Apr-22 00:00N 47°18' W 003°21'0 1.0
2018-Apr-21 23:30N 47°18' W 003°21'1 1.9
2018-Apr-21 22:59N 47°19' W 003°22'2 3.9
2018-Apr-21 22:30N 47°20' W 003°20'2 4.0
2018-Apr-21 22:00N 47°22' W 003°19'2 3.7
2018-Apr-21 21:30N 47°24' W 003°18'2 4.7
2018-Apr-21 21:00N 47°26' W 003°17'3 5.7
2018-Apr-21 20:30N 47°29' W 003°17'2 3.6
2018-Apr-21 20:00N 47°29' W 003°15'2 4.4
2018-Apr-21 19:30N 47°28' W 003°12'2 4.3
2018-Apr-21 18:58N 47°26' W 003°10'1 1.2
2018-Apr-21 18:28N 47°26' W 003°10'2 3.9
2018-Apr-21 18:00N 47°25' W 003°07'1 1.8
2018-Apr-21 17:24N 47°26' W 003°06'0 0.7
2018-Apr-21 16:58N 47°26' W 003°06'2 4.4
2018-Apr-21 16:30N 47°25' W 003°03'3 5.1
2018-Apr-21 16:00N 47°25' W 002°60'3 5.4
2018-Apr-21 15:30N 47°24' W 002°56'3 4.6
2018-Apr-21 14:58N 47°23' W 002°52'3 5.7
2018-Apr-21 14:30N 47°22' W 002°49'4 6.3
2018-Apr-21 13:55N 47°20' W 002°44'3 6.1
2018-Apr-21 13:27N 47°19' W 002°40'  
2018-Apr-14 11:32N 47°24' W 002°57'0 5.8
2018-Apr-14 11:29N 47°24' W 002°57'3 5.9
2018-Apr-14 11:00N 47°26' W 003°00'3 5.6
2018-Apr-14 10:30N 47°26' W 003°05'2 3.6
2018-Apr-14 10:00N 47°27' W 003°07'2 3.9
2018-Apr-14 09:30N 47°27' W 003°10'1 2.4
2018-Apr-14 09:00N 47°28' W 003°10'1 2.8
2018-Apr-14 08:30N 47°27' W 003°11'1 2.1
2018-Apr-14 07:59N 47°26' W 003°11'0 0.9
2018-Apr-14 07:28N 47°25' W 003°10'1 1.3
2018-Apr-14 07:00N 47°25' W 003°11'1 1.7
2018-Apr-14 06:30N 47°26' W 003°12'2 3.8
2018-Apr-14 06:00N 47°27' W 003°14'2 4.2
2018-Apr-14 05:30N 47°29' W 003°16'3 5.5
2018-Apr-14 05:00N 47°31' W 003°19'3 5.2
2018-Apr-14 04:30N 47°32' W 003°22'1 2.1
2018-Apr-14 04:00N 47°33' W 003°22'2 4.5
2018-Apr-14 03:30N 47°34' W 003°19'2 3.5
2018-Apr-14 03:00N 47°36' W 003°18'2 3.5
2018-Apr-14 02:30N 47°37' W 003°16'1 2.5
2018-Apr-14 02:00N 47°38' W 003°15'1 1.7
2018-Apr-14 01:30N 47°39' W 003°16'2 3.6
2018-Apr-14 01:00N 47°39' W 003°18'1 1.5
2018-Apr-14 00:30N 47°39' W 003°19'1 2.2
2018-Apr-14 00:00N 47°40' W 003°21'1 2.9
2018-Apr-13 23:30N 47°41' W 003°22'1 1.5
2018-Apr-13 22:59N 47°42' W 003°22'  
Track history (hours):
 
Tides and Currents Weather Stations Pressure Air Temp Water Temp Dewpoint Dewpoint Depression Visibility Wind Speed Wind Dir Waves Ship Positions

Coco Solo Sailor

Last reported at 2018-Apr-23 22:29 UTC. Time now 2018-Apr-24 18:33 UTC.
Position N 47°24' W 003°06'.

Length 6 m.

Type: Sailing vessel. MMSI: 227291190.

Date/timePositionNaut miles runAvg speedWind from/ knotsBaromVisibWave heightAir tempDewpointWater temp
2018-Apr-23 22:29N 47°24' W 003°06'4 8.3
2018-Apr-23 21:59N 47°24' W 003°12'3 6.9
2018-Apr-23 21:30N 47°27' W 003°16'4 9.0
2018-Apr-23 21:00N 47°31' W 003°18'6 1.8
2018-Apr-23 17:39N 47°33' W 003°26'1 5.5
2018-Apr-23 17:30N 47°32' W 003°26'2 3.1
2018-Apr-23 17:00N 47°32' W 003°24'84 3.5
2018-Apr-22 17:01N 46°33' W 001°57'0 5.1
2018-Apr-22 16:59N 46°33' W 001°57'2 4.0
2018-Apr-22 16:30N 46°31' W 001°55'2 3.8
2018-Apr-22 16:00N 46°30' W 001°53'2 4.0
2018-Apr-22 15:30N 46°29' W 001°51'2 4.5
2018-Apr-22 15:00N 46°27' W 001°48'2 4.0
2018-Apr-22 14:29N 46°29' W 001°50'4 7.2
2018-Apr-22 13:59N 46°30' W 001°55'74 5.6
2018-Apr-22 00:46N 47°17' W 003°19'1 2.4
2018-Apr-22 00:30N 47°17' W 003°20'1 1.9
2018-Apr-22 00:00N 47°18' W 003°21'0 1.0
2018-Apr-21 23:30N 47°18' W 003°21'1 1.9
2018-Apr-21 22:59N 47°19' W 003°22'2 3.9
2018-Apr-21 22:30N 47°20' W 003°20'2 4.0
2018-Apr-21 22:00N 47°22' W 003°19'2 3.7
2018-Apr-21 21:30N 47°24' W 003°18'2 4.7
2018-Apr-21 21:00N 47°26' W 003°17'3 5.7
2018-Apr-21 20:30N 47°29' W 003°17'2 3.6
2018-Apr-21 20:00N 47°29' W 003°15'2 4.4
2018-Apr-21 19:30N 47°28' W 003°12'2 4.3
2018-Apr-21 18:58N 47°26' W 003°10'1 1.2
2018-Apr-21 18:28N 47°26' W 003°10'2 3.9
2018-Apr-21 18:00N 47°25' W 003°07'1 1.8
2018-Apr-21 17:24N 47°26' W 003°06'0 0.7
2018-Apr-21 16:58N 47°26' W 003°06'2 4.4
2018-Apr-21 16:30N 47°25' W 003°03'3 5.1
2018-Apr-21 16:00N 47°25' W 002°60'3 5.4
2018-Apr-21 15:30N 47°24' W 002°56'3 4.6
2018-Apr-21 14:58N 47°23' W 002°52'3 5.7
2018-Apr-21 14:30N 47°22' W 002°49'4 6.3
2018-Apr-21 13:55N 47°20' W 002°44'3 6.1
2018-Apr-21 13:27N 47°19' W 002°40'  
2018-Apr-14 11:32N 47°24' W 002°57'0 5.8
2018-Apr-14 11:29N 47°24' W 002°57'3 5.9
2018-Apr-14 11:00N 47°26' W 003°00'3 5.6
2018-Apr-14 10:30N 47°26' W 003°05'2 3.6
2018-Apr-14 10:00N 47°27' W 003°07'2 3.9
2018-Apr-14 09:30N 47°27' W 003°10'1 2.4
2018-Apr-14 09:00N 47°28' W 003°10'1 2.8
2018-Apr-14 08:30N 47°27' W 003°11'1 2.1
2018-Apr-14 07:59N 47°26' W 003°11'0 0.9
2018-Apr-14 07:28N 47°25' W 003°10'1 1.3
2018-Apr-14 07:00N 47°25' W 003°11'1 1.7
2018-Apr-14 06:30N 47°26' W 003°12'2 3.8
2018-Apr-14 06:00N 47°27' W 003°14'2 4.2
2018-Apr-14 05:30N 47°29' W 003°16'3 5.5
2018-Apr-14 05:00N 47°31' W 003°19'3 5.2
2018-Apr-14 04:30N 47°32' W 003°22'1 2.1
2018-Apr-14 04:00N 47°33' W 003°22'2 4.5
2018-Apr-14 03:30N 47°34' W 003°19'2 3.5
2018-Apr-14 03:00N 47°36' W 003°18'2 3.5
2018-Apr-14 02:30N 47°37' W 003°16'1 2.5
2018-Apr-14 02:00N 47°38' W 003°15'1 1.7
2018-Apr-14 01:30N 47°39' W 003°16'2 3.6
2018-Apr-14 01:00N 47°39' W 003°18'1 1.5
2018-Apr-14 00:30N 47°39' W 003°19'1 2.2
2018-Apr-14 00:00N 47°40' W 003°21'1 2.9
2018-Apr-13 23:30N 47°41' W 003°22'1 1.5
2018-Apr-13 22:59N 47°42' W 003°22'  

Dump ship's entire track history